x

Pt Arena - 19nm North Of Point Arena, Ca (46014) Wave Buoy

8:50am - Fri 29th Aug 2014 All times are PDT. -7 hours from GMT.

  • Sig Wave height 6.2ft
  • Peak Period 12s
  • Average Period 6s
  • Wind
    22mph, 25mph gusts
  • Sea Temp 61°f
  • Air Temp 58°f
  • Sea Pressure 1014.2mb
  • Pt Arena - 19nm North Of Point Arena, Ca
  • Pt Arena - 19nm North Of Point Arena, Ca

More Historic Weather Station data

Upgrade to MSW Pro to gain access to the past 30 days of data for over 8000 Wavebouys and Weather Stations around the globe.

Join Pro

Comparision Forecast

View Surf forecast
   
Fri 08/29 8:50am 6ft 12s 6s 22 25 mph 1014.2mb 61f 58f
7:50am 7ft 12s 6s 22 27 mph 1014.3mb 61f 58f
6:50am 5ft 14s 6s 20 22 mph 1014mb 62f 58f
5:50am 5ft 13s 6s 13 16 mph 1014.2mb 62f 58f
4:50am 5ft 7s 6s 13 16 mph 1014.6mb 62f 57f
3:50am 5ft 12s 6s 13 16 mph 1014mb 61f 56f
2:50am 4.5ft 12s 6s 9 13 mph 1014.3mb 61f 57f
1:50am 4.5ft 13s 7s 11 16 mph 1014.5mb 61f 57f
12:50am 4.5ft 12s 7s 13 16 mph 1015mb 61f 58f
Thu 08/28 11:50pm 4.5ft 13s 7s 13 16 mph 1015.2mb 61f 57f
10:50pm 4.5ft 13s 7s 11 13 mph 1015.6mb 61f 56f
9:50pm 4ft 13s 7s 13 16 mph 1015.5mb 61f 56f
8:50pm 4.5ft 12s 8s 11 13 mph 1015.9mb 61f 56f
7:50pm 5ft 13s 8s 9 13 mph 1015.7mb 61f 56f
6:50pm 4.5ft 13s 8s 7 11 mph 1015.9mb 61f 56f
5:50pm 4.5ft 14s 7s 4 7 mph 1016.2mb 61f 57f
4:50pm 4.5ft 14s 8s 7 11 mph 1016.7mb 61f 57f
3:50pm  -   -   -  11 16 mph 1017mb 61f 57f
2:50pm 4.5ft 14s 8s 9 11 mph 1017.5mb 61f 57f
1:50pm 4.5ft 14s 9s 7 11 mph 1017.8mb 60f 57f
12:50pm 5ft 14s 9s 7 11 mph 1018.3mb 61f 57f
11:50am 4.5ft 14s 9s 7 9 mph 1018.8mb 61f 56f
10:50am 4.5ft 14s 8s 4 7 mph 1019.2mb 60f 56f
9:50am 5ft 14s 9s 2 7 mph 1019.3mb 60f 55f
8:50am 4.5ft 14s 9s 2 7 mph 1019.5mb 61f 55f
7:50am 4.5ft 14s 9s 2 4 mph 1019.5mb 60f 55f
6:50am 4.5ft 13s 9s 4 7 mph 1019mb 60f 55f
5:50am 5ft 14s 9s 4
mph
1018.3mb 60f 55f
4:50am 5ft 15s 9s 4 9 mph 1017.8mb 61f 55f
3:50am 4.5ft 15s 9s 9 11 mph 1017.8mb 61f 55f
2:50am 4.5ft 14s 9s 4 7 mph 1017.8mb 61f 55f
1:50am 5ft 15s 10s 2 4 mph 1017.8mb 61f 55f
12:50am 4.5ft 15s 9s 2 4 mph 1018.1mb 61f 55f
Wed 08/27 11:50pm 4ft 13s 8s 4
mph
1018.1mb 61f 55f
10:50pm 4.5ft 14s 9s  -  2 mph 1017.9mb 61f 56f
9:50pm 4.5ft 14s 9s  -  2 mph 1018.2mb 61f 55f
8:50pm 4.5ft 15s 9s 2 4 mph 1017.9mb 61f 56f
7:50pm 4.5ft 14s 9s 4 7 mph 1017.4mb 61f 56f
6:50pm  -   -   -  4
mph
1017.5mb 61f 56f
5:50pm 4.5ft 15s 9s 2 4 mph 1017.8mb 62f 56f
4:50pm 4.5ft 15s 9s 4 7 mph 1018mb 62f 56f
3:50pm  -   -   -  4
mph
- - 56f
1:50pm 4.5ft 14s 8s 2 4 mph 1018.9mb 62f 56f
12:50pm 4.5ft 14s 8s 2 7 mph 1019mb 61f 56f
11:50am 4.5ft 16s 8s 2 4 mph 1019.2mb 61f 55f
10:50am 4.5ft 11s 8s  -  2 mph 1019.3mb 60f 56f
9:50am 4ft 14s 8s 2 4 mph 1019mb 60f 55f
8:50am 4.5ft 12s 7s 4 7 mph 1018.5mb 60f 54f
7:50am 4.5ft 8s 7s 7
mph
1018.1mb 60f 54f
6:50am 4.5ft 14s 7s 7 9 mph 1017.8mb 60f 54f
5:50am 4ft 8s 7s 9 11 mph 1017.3mb 60f 55f
4:50am 4.5ft 8s 7s 7 11 mph 1016.8mb 60f 55f
3:50am 5ft 8s 7s 7 11 mph 1016.8mb 60f 56f
2:50am 4.5ft 8s 8s 7 9 mph 1016.8mb 60f 56f
1:50am 4.5ft 8s 7s 9 11 mph 1016.8mb 60f 56f
12:50am 5ft 8s 8s 7 11 mph 1016.8mb 61f 56f
Tue 08/26 11:50pm 4.5ft 8s 7s 9 11 mph 1016.1mb 61f 58f
10:50pm 5ft 8s 8s 11 13 mph 1015.8mb 60f 59f
9:50pm 4.5ft 8s 8s 9 11 mph 1015.8mb 60f 59f
8:50pm 5ft 8s 8s 9 11 mph 1015.7mb 61f 59f
7:50pm 5ft 8s 8s 11
mph
1015.5mb 61f 60f
6:50pm 5.5ft 8s 8s 9 11 mph 1015.4mb 62f 60f
5:50pm 5ft 8s 8s 4 7 mph 1015.8mb 61f 61f
4:50pm 5.5ft 8s 8s 2 4 mph 1016.4mb 61f 61f
3:50pm 5ft 9s 8s  -  2 mph 1016.8mb 62f 62f
2:50pm 4.5ft 9s 8s  -  2 mph 1017.1mb 61f 61f
1:50pm 5ft 9s 8s 2 4 mph 1017.2mb 61f 60f
12:50pm 5.5ft 9s 8s 2 4 mph 1017.3mb 60f 59f
11:50am 6.5ft 9s 8s 7 9 mph 1017.4mb 59f 59f
10:50am 6ft 9s 8s 4 9 mph 1017.5mb 59f 59f
9:50am 6ft 9s 8s 4
mph
1017.1mb 59f 58f
7:50am 5.5ft 9s 8s 9 11 mph 1016.3mb 59f 58f
5:50am 6ft 9s 8s 9 11 mph 1015.5mb 58f 58f
4:50am  -   -   -  9 13 mph 1015.2mb 58f 58f
3:50am 6ft 9s 8s 9 11 mph 1015.1mb 58f 58f
2:50am 6.5ft 9s 8s 11 13 mph 1014.7mb 58f 58f
1:50am 7ft 9s 8s 11 13 mph 1014.7mb 58f 58f
12:50am 7ft 9s 7s 11 13 mph 1014.5mb 58f 58f
Mon 08/25 11:50pm 6.5ft 8s 7s 9 13 mph 1014.4mb 59f 58f
10:50pm 5.5ft 9s 7s 11 16 mph 1013.7mb 59f 58f
9:50pm 6ft 9s 7s 13 16 mph 1013.4mb 59f 58f
8:50pm 5.5ft 8s 7s 16 20 mph 1012.5mb 59f 58f
7:50pm 5ft 8s 7s 13 16 mph 1012.4mb 59f 59f
6:50pm  -   -   -  13 16 mph 1011.8mb 59f 59f
5:50pm 5ft 8s 7s  -  2 mph 1012.4mb 59f 60f
4:50pm 5ft 8s 7s 2 4 mph 1011.9mb 59f 59f